createdAt,value
2023-04-12T00:00:58.634Z,5.87
2023-04-12T00:03:25.589Z,4.63
2023-04-12T00:05:55.279Z,2.20
2023-04-12T00:08:26.775Z,3.97
2023-04-12T00:10:53.698Z,3.80
2023-04-12T00:13:20.587Z,4.17
2023-04-12T00:15:47.839Z,3.43
2023-04-12T00:18:14.802Z,4.60
2023-04-12T00:20:41.635Z,3.33
2023-04-12T00:23:09.960Z,5.07
2023-04-12T00:25:38.671Z,3.03
2023-04-12T00:28:05.771Z,3.13
2023-04-12T00:30:32.623Z,1.37
2023-04-12T00:32:59.534Z,3.50
2023-04-12T00:35:26.454Z,2.30
2023-04-12T00:37:53.252Z,4.87
2023-04-12T00:40:20.086Z,1.37
2023-04-12T00:42:47.056Z,2.93
2023-04-12T00:45:14.739Z,1.60
2023-04-12T00:47:43.628Z,4.73
2023-04-12T00:50:11.031Z,3.60
2023-04-12T00:52:38.311Z,2.43
2023-04-12T00:55:07.447Z,3.33
2023-04-12T00:57:38.245Z,2.77
2023-04-12T01:00:12.863Z,3.30
2023-04-12T01:02:42.842Z,3.57
2023-04-12T01:05:14.905Z,2.27
2023-04-12T01:07:46.700Z,1.20
2023-04-12T01:10:26.711Z,1.80
2023-04-12T01:13:12.752Z,3.53
2023-04-12T01:15:44.560Z,2.87
2023-04-12T01:18:16.697Z,3.53
2023-04-12T01:20:53.960Z,3.13
2023-04-12T01:23:40.215Z,2.70
2023-04-12T01:26:15.866Z,3.47
2023-04-12T01:28:43.631Z,0.83
2023-04-12T01:31:13.188Z,1.57
2023-04-12T01:33:40.983Z,2.13
2023-04-12T01:36:13.599Z,1.50
2023-04-12T01:38:41.786Z,2.70
2023-04-12T01:41:08.804Z,2.80
2023-04-12T01:43:40.597Z,2.43
2023-04-12T01:46:07.385Z,2.97
2023-04-12T02:06:30.216Z,1.50
2023-04-12T02:09:03.552Z,1.70
2023-04-12T02:11:30.464Z,2.27
2023-04-12T02:13:57.401Z,1.00
2023-04-12T02:16:24.361Z,0.97
2023-04-12T02:18:51.258Z,1.27
2023-04-12T02:21:18.424Z,2.87
2023-04-12T02:23:45.712Z,2.40
2023-04-12T02:26:12.900Z,1.60
2023-04-12T02:28:40.229Z,1.93
2023-04-12T02:31:10.729Z,1.93
2023-04-12T02:33:37.789Z,1.87
2023-04-12T02:36:10.429Z,1.47
2023-04-12T03:04:03.614Z,0.93
2023-04-12T03:06:54.578Z,0.90
2023-04-12T03:09:29.213Z,1.80
2023-04-12T03:11:56.053Z,1.30
2023-04-12T03:14:23.657Z,1.03
2023-04-12T03:16:53.715Z,1.47
2023-04-12T03:19:21.324Z,1.67
2023-04-12T03:21:54.608Z,0.97
2023-04-12T03:24:21.878Z,0.93
2023-04-12T03:26:50.378Z,1.63
2023-04-12T03:29:22.421Z,0.73
2023-04-12T03:31:51.374Z,0.90
2023-04-12T03:34:18.194Z,1.30
2023-04-12T03:36:50.159Z,2.20
2023-04-12T03:39:22.487Z,1.23
2023-04-12T03:41:53.313Z,2.33
2023-04-12T03:44:26.299Z,0.67
2023-04-12T03:46:55.462Z,1.40
2023-04-12T03:49:23.074Z,3.23
2023-04-12T03:51:51.070Z,0.80
2023-04-12T03:54:17.851Z,0.97
2023-04-12T03:56:57.267Z,2.13
2023-04-12T03:59:29.847Z,2.37
2023-04-12T04:01:57.527Z,0.77
2023-04-12T04:04:27.599Z,2.17
2023-04-12T04:06:57.809Z,1.13
2023-04-12T04:09:26.486Z,2.03
2023-04-12T04:11:53.352Z,2.03
2023-04-12T04:14:39.949Z,1.37
2023-04-12T04:17:09.759Z,1.83
2023-04-12T04:19:36.564Z,0.63
2023-04-12T04:22:03.456Z,1.23
2023-04-12T04:24:30.628Z,0.90
2023-04-12T04:27:01.203Z,1.90
2023-04-12T04:29:30.243Z,1.10
2023-04-12T04:31:58.608Z,0.93
2023-04-12T04:34:26.459Z,3.33
2023-04-12T04:37:00.893Z,0.93
2023-04-12T04:39:28.457Z,1.50
2023-04-12T04:41:58.538Z,1.70
2023-04-12T04:45:04.757Z,0.70
2023-04-12T04:47:37.500Z,1.80
2023-04-12T04:50:04.671Z,2.93
2023-04-12T04:52:32.076Z,2.97
2023-04-12T04:55:08.004Z,1.23
2023-04-12T04:57:37.068Z,1.10
2023-04-12T05:00:11.294Z,1.47
2023-04-12T05:02:42.943Z,1.27
2023-04-12T05:05:23.298Z,2.00
2023-04-12T05:07:56.785Z,0.80
2023-04-12T05:10:23.901Z,2.20
2023-04-12T05:12:52.116Z,2.80
2023-04-12T05:15:19.581Z,1.63
2023-04-12T05:17:46.657Z,1.73
2023-04-12T05:20:13.396Z,2.23
2023-04-12T05:22:40.618Z,3.07
2023-04-12T05:25:07.869Z,2.40
2023-04-12T05:27:40.490Z,1.33
2023-04-12T05:30:09.601Z,1.33
2023-04-12T05:32:36.766Z,0.83
2023-04-12T05:35:03.650Z,3.90
2023-04-12T05:37:31.386Z,3.37
2023-04-12T05:39:58.678Z,2.30
2023-04-12T05:42:25.721Z,2.10
2023-04-12T05:44:52.509Z,1.47
2023-04-12T05:47:21.918Z,0.97
2023-04-12T05:49:49.091Z,1.23
2023-04-12T05:52:17.966Z,0.73
2023-04-12T05:54:44.849Z,1.30
2023-04-12T05:57:18.003Z,1.33
2023-04-12T05:59:47.859Z,1.03
2023-04-12T06:02:14.824Z,0.53
2023-04-12T06:04:50.176Z,2.13
2023-04-12T06:07:19.757Z,2.57
2023-04-12T06:09:47.718Z,1.80
2023-04-12T06:12:16.489Z,1.70
2023-04-12T06:14:43.745Z,2.43
2023-04-12T06:17:11.537Z,3.77
2023-04-12T06:19:40.014Z,2.40
2023-04-12T06:22:07.245Z,2.50
2023-04-12T06:24:34.722Z,3.30
2023-04-12T06:27:02.185Z,2.07
2023-04-12T06:29:29.327Z,1.77
2023-04-12T06:31:56.334Z,1.87
2023-04-12T06:34:23.294Z,2.83
2023-04-12T06:36:51.748Z,4.13
2023-04-12T06:39:18.576Z,3.17
2023-04-12T06:41:47.618Z,1.20
2023-04-12T06:44:19.415Z,0.87
2023-04-12T06:46:47.002Z,1.00
2023-04-12T06:49:14.160Z,1.13
2023-04-12T06:51:41.426Z,1.03
2023-04-12T06:54:08.458Z,1.43
2023-04-12T06:56:37.034Z,1.83
2023-04-12T06:59:04.300Z,1.10
2023-04-12T07:01:31.702Z,2.67
2023-04-12T07:03:58.968Z,2.83
2023-04-12T07:06:26.386Z,0.60
2023-04-12T07:08:53.884Z,0.70
2023-04-12T07:11:24.033Z,1.90
2023-04-12T07:13:51.601Z,0.73
2023-04-12T07:16:18.662Z,1.87
2023-04-12T07:18:45.658Z,1.73
2023-04-12T07:21:17.582Z,1.70
2023-04-12T07:23:46.921Z,1.50
2023-04-12T07:26:13.961Z,1.93
2023-04-12T07:28:41.026Z,2.03
2023-04-12T07:31:08.239Z,1.37
2023-04-12T07:33:36.900Z,3.80
2023-04-12T07:36:04.854Z,2.23
2023-04-12T07:38:31.950Z,2.53
2023-04-12T07:40:58.766Z,2.17
2023-04-12T07:43:25.774Z,2.10
2023-04-12T07:45:54.387Z,1.47
2023-04-12T07:48:21.725Z,1.33
2023-04-12T07:50:49.081Z,1.63
2023-04-12T07:53:26.780Z,1.67
2023-04-12T07:55:54.122Z,1.53
2023-04-12T07:58:24.952Z,3.57
2023-04-12T08:00:53.051Z,1.63
2023-04-12T08:03:20.168Z,1.27
2023-04-12T08:05:49.760Z,3.03
2023-04-12T08:08:16.532Z,1.90
2023-04-12T08:10:43.301Z,2.20
2023-04-12T08:13:10.036Z,0.73
2023-04-12T08:15:37.178Z,1.17
2023-04-12T08:18:04.555Z,1.77
2023-04-12T08:20:33.113Z,3.63
2023-04-12T08:23:00.409Z,0.97
2023-04-12T08:25:27.476Z,0.40
2023-04-12T08:27:54.644Z,2.20
2023-04-12T08:30:26.813Z,0.53
2023-04-12T08:32:54.185Z,0.40
2023-04-12T08:35:20.991Z,0.73
2023-04-12T08:37:48.042Z,2.10
2023-04-12T08:40:15.133Z,0.40
2023-04-12T08:42:42.162Z,1.17
2023-04-12T08:45:10.444Z,0.30
2023-04-12T08:47:38.667Z,0.60
2023-04-12T08:50:09.584Z,2.83
2023-04-12T08:52:37.778Z,2.80
2023-04-12T08:55:06.037Z,1.40
2023-04-12T08:57:33.037Z,1.07
2023-04-12T09:00:01.434Z,1.67
2023-04-12T09:02:28.813Z,0.60
2023-04-12T09:04:56.241Z,2.83
2023-04-12T09:07:23.679Z,0.97
2023-04-12T09:09:51.141Z,2.10
2023-04-12T09:12:20.575Z,1.30
2023-04-12T09:14:47.512Z,0.70
2023-04-12T09:17:28.058Z,1.33
2023-04-12T09:19:57.745Z,0.70
2023-04-12T09:22:39.004Z,0.67
2023-04-12T09:25:06.057Z,1.23
2023-04-12T09:27:51.725Z,0.70
2023-04-12T09:30:19.451Z,0.60
2023-04-12T09:32:46.659Z,0.80
2023-04-12T09:35:13.475Z,1.67
2023-04-12T09:37:40.997Z,2.87
2023-04-12T09:40:09.183Z,3.67
2023-04-12T09:42:53.608Z,4.30
2023-04-12T09:45:22.446Z,3.77
2023-04-12T09:47:49.428Z,9.27
2023-04-12T09:50:23.698Z,6.77
2023-04-12T09:52:50.559Z,5.27
2023-04-12T09:55:17.663Z,6.17
2023-04-12T09:57:45.418Z,5.33
2023-04-12T10:00:14.250Z,2.33
2023-04-12T10:02:44.489Z,3.10
2023-04-12T10:05:13.736Z,5.87
2023-04-12T10:07:42.448Z,4.30
2023-04-12T10:10:10.004Z,4.90
2023-04-12T10:12:37.431Z,5.60
2023-04-12T10:15:06.532Z,3.67
2023-04-12T10:17:35.298Z,4.97
2023-04-12T10:20:03.348Z,3.17
2023-04-12T10:22:30.123Z,5.33
2023-04-12T10:24:56.924Z,8.47
2023-04-12T10:27:27.571Z,7.53
2023-04-12T10:29:54.481Z,6.83
2023-04-12T10:32:23.058Z,7.30
2023-04-12T10:34:54.355Z,7.40
2023-04-12T10:37:21.589Z,4.93
2023-04-12T10:39:55.026Z,12.33
2023-04-12T10:42:28.815Z,7.50
2023-04-12T10:45:17.135Z,6.00
2023-04-12T10:47:50.097Z,6.20
2023-04-12T10:50:21.836Z,3.40
2023-04-12T10:53:07.323Z,4.37
2023-04-12T10:55:34.189Z,3.63
2023-04-12T10:58:00.991Z,5.43
2023-04-12T11:00:47.830Z,6.30
2023-04-12T11:03:15.176Z,4.60
2023-04-12T11:06:12.543Z,1.83
2023-04-12T11:09:07.081Z,5.17
2023-04-12T11:11:34.930Z,2.23
2023-04-12T11:14:02.584Z,2.30
2023-04-12T11:16:29.581Z,4.37
2023-04-12T11:18:56.751Z,3.27
2023-04-12T11:21:24.210Z,3.57
2023-04-12T11:23:51.283Z,5.30
2023-04-12T11:26:22.208Z,3.03
2023-04-12T11:28:53.136Z,6.50
2023-04-12T11:31:20.250Z,7.83
2023-04-12T11:33:47.544Z,6.57
2023-04-12T11:36:14.464Z,4.40
2023-04-12T11:38:44.093Z,6.23
2023-04-12T11:41:11.743Z,5.53
2023-04-12T11:43:39.039Z,8.03
2023-04-12T11:46:06.748Z,6.57
2023-04-12T11:48:33.934Z,5.97
2023-04-12T11:51:10.918Z,5.73
2023-04-12T11:53:38.376Z,5.47
2023-04-12T11:56:05.303Z,6.37
2023-04-12T11:58:33.025Z,6.73
2023-04-12T12:01:00.165Z,3.60
2023-04-12T12:03:27.308Z,6.30
2023-04-12T12:05:54.629Z,8.00
2023-04-12T12:08:22.160Z,5.27
2023-04-12T12:11:06.510Z,5.37
2023-04-12T12:13:44.691Z,4.67
2023-04-12T12:16:12.511Z,7.07
2023-04-12T12:18:46.467Z,7.53
2023-04-12T12:21:13.722Z,10.50
2023-04-12T12:23:42.835Z,7.90
2023-04-12T12:26:18.862Z,6.27
2023-04-12T12:28:49.610Z,9.03
2023-04-12T12:31:18.901Z,7.03
2023-04-12T12:33:47.346Z,7.67
2023-04-12T12:36:18.044Z,8.17
2023-04-12T12:38:44.810Z,8.80
2023-04-12T12:41:22.191Z,6.80
2023-04-12T12:43:50.257Z,7.67
2023-04-12T12:46:20.612Z,6.90
2023-04-12T12:48:48.366Z,9.40
2023-04-12T12:51:22.637Z,7.43
2023-04-12T12:53:49.436Z,6.37
2023-04-12T12:56:16.917Z,9.47
2023-04-12T12:58:43.688Z,6.43
2023-04-12T13:01:11.306Z,9.97
2023-04-12T13:03:38.148Z,7.50
2023-04-12T13:06:05.375Z,6.13
2023-04-12T13:08:37.317Z,7.27
2023-04-12T13:11:04.153Z,10.83
2023-04-12T13:13:31.000Z,8.00
2023-04-12T13:15:57.822Z,5.93
2023-04-12T13:18:24.588Z,6.20
2023-04-12T13:20:51.642Z,5.30
2023-04-12T13:23:18.364Z,4.07
2023-04-12T13:25:45.089Z,6.03
2023-04-12T13:28:12.938Z,7.03
2023-04-12T13:30:39.604Z,6.73
2023-04-12T13:33:06.801Z,4.97
2023-04-12T13:35:33.634Z,3.50
2023-04-12T13:38:00.392Z,5.87
2023-04-12T13:40:27.064Z,4.23
2023-04-12T13:42:53.740Z,4.17
2023-04-12T13:45:20.407Z,4.17
2023-04-12T13:47:47.717Z,5.33
2023-04-12T13:50:14.664Z,4.13
2023-04-12T13:52:41.338Z,4.13
2023-04-12T13:55:08.602Z,4.90
2023-04-12T13:57:38.159Z,5.37
2023-04-12T14:00:05.267Z,4.27
2023-04-12T14:02:32.641Z,4.37
2023-04-12T14:05:00.301Z,4.80
2023-04-12T14:07:29.572Z,5.07
2023-04-12T14:09:57.919Z,3.17
2023-04-12T14:12:24.632Z,3.07
2023-04-12T14:14:51.502Z,3.33
2023-04-12T14:17:18.306Z,3.53
2023-04-12T14:19:44.984Z,5.53
2023-04-12T14:22:11.813Z,4.77
2023-04-12T14:24:40.226Z,9.17
2023-04-12T14:27:07.910Z,3.70
2023-04-12T14:29:35.477Z,3.33
2023-04-12T14:32:02.251Z,4.20
2023-04-12T14:34:28.947Z,4.30
2023-04-12T14:36:56.503Z,3.07
2023-04-12T14:39:24.569Z,2.60
2023-04-12T14:41:51.337Z,2.33
2023-04-12T14:44:20.445Z,4.67
2023-04-12T14:46:47.885Z,1.37
2023-04-12T14:49:14.768Z,1.10
2023-04-12T14:51:41.527Z,3.53
2023-04-12T14:54:08.263Z,3.17
2023-04-12T14:56:44.522Z,1.93
2023-04-12T14:59:16.864Z,2.47
2023-04-12T15:01:44.191Z,3.27
2023-04-12T15:04:11.564Z,3.90
2023-04-12T15:06:42.552Z,3.00
2023-04-12T15:09:10.023Z,4.37
2023-04-12T15:11:36.864Z,4.07
2023-04-12T15:14:07.584Z,1.90
2023-04-12T15:16:35.209Z,3.87
2023-04-12T15:19:08.522Z,2.67
2023-04-12T15:21:41.431Z,3.17
2023-04-12T15:24:08.252Z,2.93
2023-04-12T15:26:36.565Z,1.03
2023-04-12T15:29:03.951Z,3.40
2023-04-12T15:31:30.761Z,0.93
2023-04-12T15:33:58.305Z,1.10
2023-04-12T15:36:34.165Z,1.53
2023-04-12T15:39:01.672Z,1.73
2023-04-12T15:41:32.983Z,1.97
2023-04-12T15:43:59.901Z,3.00
2023-04-12T15:46:26.775Z,2.37
2023-04-12T15:48:53.667Z,1.33
2023-04-12T15:51:20.872Z,2.63
2023-04-12T15:53:47.916Z,0.83
2023-04-12T15:56:17.317Z,2.57
2023-04-12T15:58:44.863Z,1.47
2023-04-12T16:01:11.759Z,1.03
2023-04-12T16:03:38.805Z,1.03
2023-04-12T16:06:06.007Z,0.93
2023-04-12T16:08:32.759Z,3.40
2023-04-12T16:10:59.521Z,2.20
2023-04-12T16:13:26.405Z,0.67
2023-04-12T16:15:53.469Z,1.63
2023-04-12T16:18:20.707Z,1.20
2023-04-12T16:20:47.450Z,1.37
2023-04-12T16:23:14.895Z,1.30
2023-04-12T16:25:41.716Z,1.13
2023-04-12T16:28:08.707Z,2.73
2023-04-12T16:30:36.294Z,1.07
2023-04-12T16:33:03.222Z,1.30
2023-04-12T16:35:30.069Z,1.53
2023-04-12T16:37:56.883Z,1.00
2023-04-12T16:40:24.746Z,1.33
2023-04-12T16:42:51.837Z,1.00
2023-04-12T16:45:18.606Z,0.90
2023-04-12T16:47:48.287Z,1.60
2023-04-12T16:50:15.654Z,0.80
2023-04-12T16:52:42.710Z,0.80
2023-04-12T16:55:12.749Z,1.47
2023-04-12T16:57:40.703Z,2.47
2023-04-12T17:00:19.685Z,1.60
2023-04-12T17:02:47.592Z,0.87
2023-04-12T17:05:17.747Z,1.17
2023-04-12T17:07:49.913Z,1.37
2023-04-12T17:10:23.775Z,1.33
2023-04-12T17:12:52.090Z,1.53
2023-04-12T17:15:21.034Z,2.47
2023-04-12T17:17:49.335Z,1.70
2023-04-12T17:20:17.175Z,2.23
2023-04-12T17:22:44.255Z,2.77
2023-04-12T17:25:12.104Z,1.93
2023-04-12T17:27:41.146Z,3.53
2023-04-12T17:30:09.429Z,3.43
2023-04-12T17:32:36.638Z,3.50
2023-04-12T17:35:05.387Z,1.87
2023-04-12T17:37:32.602Z,2.57
2023-04-12T17:39:59.883Z,2.03
2023-04-12T17:42:27.227Z,1.83
2023-04-12T17:44:53.968Z,4.53
2023-04-12T17:47:20.801Z,3.00
2023-04-12T17:49:47.674Z,4.90
2023-04-12T17:52:14.628Z,1.80
2023-04-12T17:54:42.266Z,1.43
2023-04-12T17:57:09.599Z,2.40
2023-04-12T17:59:36.902Z,1.57
2023-04-12T18:02:03.814Z,2.10
2023-04-12T18:04:30.926Z,3.90
2023-04-12T18:06:58.575Z,3.57
2023-04-12T18:09:26.486Z,3.70
2023-04-12T18:11:53.556Z,5.00
2023-04-12T18:14:20.813Z,4.20
2023-04-12T18:16:47.555Z,3.57
2023-04-12T18:19:15.812Z,2.37
2023-04-12T18:21:43.828Z,3.03
2023-04-12T18:24:10.741Z,2.13
2023-04-12T18:26:37.520Z,1.83
2023-04-12T18:29:04.383Z,1.87
2023-04-12T18:31:31.450Z,3.27
2023-04-12T18:33:58.608Z,4.10
2023-04-12T18:36:27.354Z,6.50
2023-04-12T18:38:54.169Z,9.67
2023-04-12T18:41:21.589Z,8.90
2023-04-12T18:43:48.355Z,5.07
2023-04-12T18:46:17.581Z,4.50
2023-04-12T18:48:48.196Z,2.10
2023-04-12T18:51:15.379Z,3.83
2023-04-12T18:53:42.086Z,1.20
2023-04-12T18:56:09.380Z,3.13
2023-04-12T18:58:53.863Z,3.53
2023-04-12T19:01:22.153Z,3.10
2023-04-12T19:03:49.223Z,3.10
2023-04-12T19:06:16.205Z,3.70
2023-04-12T19:08:43.336Z,4.43
2023-04-12T19:11:10.092Z,2.70
2023-04-12T19:13:38.447Z,2.13
2023-04-12T19:16:08.081Z,2.27
2023-04-12T19:18:35.020Z,2.47
2023-04-12T19:21:02.791Z,2.33
2023-04-12T19:23:31.810Z,1.53
2023-04-12T19:26:00.330Z,1.73
2023-04-12T19:28:27.641Z,4.53
2023-04-12T19:30:54.638Z,1.30
2023-04-12T19:33:21.435Z,1.37
2023-04-12T19:35:48.274Z,3.23
2023-04-12T19:38:15.954Z,1.00
2023-04-12T19:40:43.021Z,2.40
2023-04-12T19:43:09.905Z,1.37
2023-04-12T19:45:36.760Z,2.57
2023-04-12T19:48:03.637Z,0.80
2023-04-12T19:50:31.345Z,2.60
2023-04-12T19:52:59.151Z,1.00
2023-04-12T19:55:26.211Z,2.73
2023-04-12T19:57:53.664Z,1.63
2023-04-12T20:00:21.004Z,1.70
2023-04-12T20:02:52.128Z,0.93
2023-04-12T20:05:19.879Z,1.67
2023-04-12T20:07:46.694Z,1.23
2023-04-12T20:10:13.875Z,2.30
2023-04-12T20:12:40.667Z,1.27
2023-04-12T20:15:11.874Z,2.03
2023-04-12T20:17:42.569Z,2.97
2023-04-12T20:20:14.345Z,2.67
2023-04-12T20:22:41.973Z,4.53
2023-04-12T20:25:11.263Z,2.50
2023-04-12T20:27:39.126Z,2.17
2023-04-12T20:30:06.650Z,1.77
2023-04-12T20:32:34.589Z,3.20
2023-04-12T20:35:05.050Z,0.80
2023-04-12T20:37:31.934Z,0.60
2023-04-12T20:39:59.597Z,1.17
2023-04-12T20:42:26.657Z,0.53
2023-04-12T20:44:53.439Z,1.17
2023-04-12T20:47:20.124Z,0.63
2023-04-12T20:49:46.923Z,2.20
2023-04-12T20:52:16.881Z,0.70
2023-04-12T20:54:45.787Z,0.90
2023-04-12T20:57:13.350Z,0.90
2023-04-12T20:59:40.222Z,1.30
2023-04-12T21:02:07.344Z,1.47
2023-04-12T21:04:36.680Z,3.53
2023-04-12T21:07:05.147Z,2.47
2023-04-12T21:09:32.737Z,1.70
2023-04-12T21:12:02.792Z,1.30
2023-04-12T21:14:29.656Z,1.13
2023-04-12T21:16:56.507Z,0.57
2023-04-12T21:19:23.226Z,0.93
2023-04-12T21:21:51.232Z,0.87
2023-04-12T21:24:18.610Z,1.07
2023-04-12T21:26:53.812Z,3.50
2023-04-12T21:29:20.494Z,0.80
2023-04-12T21:31:47.424Z,1.03
2023-04-12T21:34:14.282Z,1.63
2023-04-12T21:36:40.925Z,1.17
2023-04-12T21:39:07.971Z,1.10
2023-04-12T21:41:34.753Z,1.27
2023-04-12T21:44:01.536Z,1.30
2023-04-12T21:46:28.905Z,1.27
2023-04-12T21:48:56.029Z,1.90
2023-04-12T21:51:24.885Z,6.70
2023-04-12T21:53:51.577Z,0.57
2023-04-12T21:56:18.243Z,2.83
2023-04-12T21:58:44.944Z,0.60
2023-04-12T22:01:11.720Z,1.43
2023-04-12T22:03:38.979Z,1.33
2023-04-12T22:06:07.229Z,2.53
2023-04-12T22:08:34.317Z,1.13
2023-04-12T22:11:01.487Z,1.27
2023-04-12T22:13:28.273Z,0.93
2023-04-12T22:15:55.167Z,0.97
2023-04-12T22:18:22.256Z,1.67
2023-04-12T22:20:49.087Z,1.80
2023-04-12T22:23:18.310Z,3.13
2023-04-12T22:25:46.208Z,1.47
2023-04-12T22:28:12.953Z,1.83
2023-04-12T22:30:39.823Z,1.07
2023-04-12T22:33:08.622Z,2.57
2023-04-12T22:35:36.585Z,2.10
2023-04-12T22:38:04.323Z,2.67
2023-04-12T22:40:31.108Z,1.40
2023-04-12T22:42:58.403Z,1.63
2023-04-12T22:45:25.303Z,1.90
2023-04-12T22:47:53.143Z,4.13
2023-04-12T22:50:20.155Z,2.53
2023-04-12T22:52:50.096Z,3.53
2023-04-12T22:55:18.328Z,0.67
2023-04-12T22:57:45.312Z,2.27
2023-04-12T23:00:16.946Z,3.40
2023-04-12T23:02:45.043Z,2.20
2023-04-12T23:05:12.792Z,2.83
2023-04-12T23:07:41.436Z,1.10
2023-04-12T23:10:08.987Z,2.77
2023-04-12T23:12:37.478Z,1.37
2023-04-12T23:15:06.305Z,4.77
2023-04-12T23:17:34.008Z,2.57
2023-04-12T23:20:02.122Z,2.77
2023-04-12T23:22:54.994Z,0.50
2023-04-12T23:25:38.146Z,2.10
2023-04-12T23:28:13.491Z,1.90
2023-04-12T23:30:43.618Z,1.77
2023-04-12T23:33:12.430Z,1.10
2023-04-12T23:35:39.583Z,1.97
2023-04-12T23:38:06.304Z,0.93
2023-04-12T23:40:33.413Z,2.80
2023-04-12T23:43:00.481Z,1.97
2023-04-12T23:45:27.686Z,4.53
2023-04-12T23:47:54.540Z,4.90
2023-04-12T23:50:21.287Z,2.27
2023-04-12T23:52:48.505Z,2.43
2023-04-12T23:55:15.320Z,1.20
2023-04-12T23:57:42.427Z,1.10
